createdAt,value
2017-04-29T00:00:02.976Z,1004.53
2017-04-29T00:00:43.477Z,1004.53
2017-04-29T00:01:23.998Z,1004.5
2017-04-29T00:02:04.462Z,1004.5
2017-04-29T00:02:44.942Z,1004.47
2017-04-29T00:03:25.465Z,1004.51
2017-04-29T00:04:05.979Z,1004.49
2017-04-29T00:04:46.466Z,1004.52
2017-04-29T00:05:26.940Z,1004.49
2017-04-29T00:06:07.388Z,1004.5
2017-04-29T00:06:47.897Z,1004.54
2017-04-29T00:07:28.428Z,1004.49
2017-04-29T00:08:08.887Z,1004.51
2017-04-29T00:08:49.380Z,1004.46
2017-04-29T00:09:29.909Z,1004.46
2017-04-29T00:10:10.365Z,1004.45
2017-04-29T00:10:50.883Z,1004.5
2017-04-29T00:11:31.425Z,1004.48
2017-04-29T00:12:11.907Z,1004.49
2017-04-29T00:12:52.362Z,1004.49
2017-04-29T00:13:32.887Z,1004.54
2017-04-29T00:14:13.368Z,1004.46
2017-04-29T00:14:53.832Z,1004.48
2017-04-29T00:15:34.350Z,1004.46
2017-04-29T00:16:14.817Z,1004.49
2017-04-29T00:16:55.316Z,1004.51
2017-04-29T00:17:35.867Z,1004.47
2017-04-29T00:18:16.343Z,1004.46
2017-04-29T00:18:56.836Z,1004.49
2017-04-29T00:19:37.371Z,1004.46
2017-04-29T00:20:17.879Z,1004.46
2017-04-29T00:20:58.359Z,1004.46
2017-04-29T00:21:38.859Z,1004.45
2017-04-29T00:22:19.359Z,1004.45
2017-04-29T00:22:59.864Z,1004.44
2017-04-29T00:23:40.347Z,1004.45
2017-04-29T00:24:20.832Z,1004.44
2017-04-29T00:25:01.373Z,1004.46
2017-04-29T00:25:41.875Z,1004.44
2017-04-29T00:26:22.420Z,1004.47
2017-04-29T00:27:02.904Z,1004.46
2017-04-29T00:27:43.404Z,1004.46
2017-04-29T00:28:23.898Z,1004.46
2017-04-29T00:29:04.363Z,1004.45
2017-04-29T00:29:44.853Z,1004.49
2017-04-29T00:30:25.379Z,1004.48
2017-04-29T00:31:05.881Z,1004.46
2017-04-29T00:31:46.384Z,1004.51
2017-04-29T00:32:26.911Z,1004.45
2017-04-29T00:33:07.463Z,1004.52
2017-04-29T00:33:47.925Z,1004.47
2017-04-29T00:34:28.453Z,1004.47
2017-04-29T00:35:08.947Z,1004.48
2017-04-29T00:35:49.450Z,1004.42
2017-04-29T00:36:29.969Z,1004.48
2017-04-29T00:37:10.495Z,1004.43
2017-04-29T00:37:51.014Z,1004.49
2017-04-29T00:38:31.578Z,1004.45
2017-04-29T00:39:12.051Z,1004.46
2017-04-29T00:39:52.567Z,1004.46
2017-04-29T00:40:33.092Z,1004.45
2017-04-29T00:41:13.610Z,1004.46
2017-04-29T00:41:54.171Z,1004.51
2017-04-29T00:42:34.685Z,1004.49
2017-04-29T00:43:15.205Z,1004.47
2017-04-29T00:43:55.717Z,1004.5
2017-04-29T00:44:36.242Z,1004.5
2017-04-29T00:45:16.762Z,1004.49
2017-04-29T00:45:57.284Z,1004.48
2017-04-29T00:46:37.806Z,1004.5
2017-04-29T00:47:18.294Z,1004.46
2017-04-29T00:47:58.774Z,1004.47
2017-04-29T00:48:39.327Z,1004.5
2017-04-29T00:49:19.759Z,1004.47
2017-04-29T00:50:00.260Z,1004.48
2017-04-29T00:50:40.734Z,1004.49
2017-04-29T00:51:21.229Z,1004.51
2017-04-29T00:52:01.742Z,1004.47
2017-04-29T00:52:42.262Z,1004.47
2017-04-29T00:53:22.776Z,1004.48
2017-04-29T00:54:03.293Z,1004.52
2017-04-29T00:54:43.854Z,1004.49
2017-04-29T00:57:02.213Z,1004.44
2017-04-29T00:57:42.745Z,1004.45
2017-04-29T00:58:23.260Z,1004.47
2017-04-29T00:59:03.854Z,1004.49
2017-04-29T00:59:44.386Z,1004.51
2017-04-29T01:00:24.910Z,1004.47
2017-04-29T01:01:05.428Z,1004.47
2017-04-29T01:01:45.953Z,1004.45
2017-04-29T01:02:26.491Z,1004.51
2017-04-29T01:03:07.013Z,1004.48
2017-04-29T01:03:47.534Z,1004.51
2017-04-29T01:04:28.043Z,1004.46
2017-04-29T01:05:08.556Z,1004.51
2017-04-29T01:05:49.087Z,1004.46
2017-04-29T01:06:29.597Z,1004.49
2017-04-29T01:07:10.106Z,1004.5
2017-04-29T01:07:50.617Z,1004.48
2017-04-29T01:08:31.138Z,1004.55
2017-04-29T01:09:11.651Z,1004.52
2017-04-29T01:09:52.171Z,1004.48
2017-04-29T01:10:32.698Z,1004.5
2017-04-29T01:11:13.212Z,1004.5
2017-04-29T01:11:53.746Z,1004.5
2017-04-29T01:12:34.394Z,1004.52
2017-04-29T01:13:14.913Z,1004.52
2017-04-29T01:13:55.443Z,1004.49
2017-04-29T01:14:35.966Z,1004.54
2017-04-29T01:15:16.498Z,1004.5
2017-04-29T01:15:57.005Z,1004.51
2017-04-29T01:16:37.532Z,1004.52
2017-04-29T01:17:18.041Z,1004.5
2017-04-29T01:17:58.562Z,1004.57
2017-04-29T01:18:39.081Z,1004.59
2017-04-29T01:19:19.651Z,1004.58
2017-04-29T01:20:00.164Z,1004.56
2017-04-29T01:20:40.689Z,1004.57
2017-04-29T01:21:21.213Z,1004.55
2017-04-29T01:22:01.732Z,1004.56
2017-04-29T01:22:42.262Z,1004.57
2017-04-29T01:23:22.771Z,1004.61
2017-04-29T01:24:03.300Z,1004.58
2017-04-29T01:24:43.815Z,1004.61
2017-04-29T01:25:24.342Z,1004.58
2017-04-29T01:26:04.852Z,1004.6
2017-04-29T01:26:45.368Z,1004.62
2017-04-29T01:27:25.882Z,1004.62
2017-04-29T01:28:06.408Z,1004.67
2017-04-29T01:28:46.924Z,1004.69
2017-04-29T01:29:27.436Z,1004.61
2017-04-29T01:30:07.956Z,1004.6
2017-04-29T01:30:48.478Z,1004.67
2017-04-29T01:31:28.989Z,1004.67
2017-04-29T01:32:09.511Z,1004.68
2017-04-29T01:32:50.071Z,1004.75
2017-04-29T01:33:30.546Z,1004.72
2017-04-29T01:34:11.067Z,1004.75
2017-04-29T01:34:51.582Z,1004.76
2017-04-29T01:35:32.103Z,1004.78
2017-04-29T01:36:12.609Z,1004.74
2017-04-29T01:36:53.136Z,1004.75
2017-04-29T01:37:33.674Z,1004.78
2017-04-29T01:38:14.210Z,1004.78
2017-04-29T01:38:54.724Z,1004.8
2017-04-29T01:39:35.232Z,1004.76
2017-04-29T01:40:15.763Z,1004.77
2017-04-29T01:40:56.267Z,1004.75
2017-04-29T01:41:37.007Z,1004.81
2017-04-29T01:42:17.497Z,1004.8
2017-04-29T01:42:58.027Z,1004.79
2017-04-29T01:43:38.553Z,1004.84
2017-04-29T01:44:19.084Z,1004.83
2017-04-29T01:44:59.600Z,1004.89
2017-04-29T01:45:40.113Z,1004.88
2017-04-29T01:46:20.645Z,1004.86
2017-04-29T01:47:01.157Z,1004.89
2017-04-29T01:47:41.652Z,1004.87
2017-04-29T01:48:22.160Z,1004.9
2017-04-29T01:49:02.665Z,1004.92
2017-04-29T01:49:43.196Z,1004.97
2017-04-29T01:50:23.704Z,1004.97
2017-04-29T01:51:04.198Z,1004.94
2017-04-29T01:51:44.706Z,1004.96
2017-04-29T01:52:25.219Z,1004.96
2017-04-29T01:53:05.748Z,1004.99
2017-04-29T01:53:46.283Z,1004.96
2017-04-29T01:54:26.805Z,1004.96
2017-04-29T01:55:07.328Z,1004.96
2017-04-29T01:55:47.845Z,1004.93
2017-04-29T01:56:28.363Z,1004.97
2017-04-29T01:57:08.870Z,1004.93
2017-04-29T01:57:49.383Z,1004.92
2017-04-29T01:58:36.539Z,1004.94
2017-04-29T01:59:17.056Z,1004.94
2017-04-29T01:59:57.583Z,1004.93
2017-04-29T02:00:38.104Z,1004.89
2017-04-29T02:01:18.616Z,1004.9
2017-04-29T02:01:59.139Z,1004.87
2017-04-29T02:02:39.651Z,1004.88
2017-04-29T02:03:20.166Z,1004.92
2017-04-29T02:04:00.681Z,1004.9
2017-04-29T02:04:41.202Z,1004.89
2017-04-29T02:05:21.745Z,1004.94
2017-04-29T02:06:02.268Z,1004.88
2017-04-29T02:06:42.796Z,1004.85
2017-04-29T02:07:23.299Z,1004.87
2017-04-29T02:08:03.817Z,1004.84
2017-04-29T02:08:44.347Z,1004.84
2017-04-29T02:09:24.871Z,1004.88
2017-04-29T02:10:05.405Z,1004.83
2017-04-29T02:10:45.930Z,1004.81
2017-04-29T02:11:26.453Z,1004.85
2017-04-29T02:12:06.992Z,1004.84
2017-04-29T02:12:47.505Z,1004.82
2017-04-29T02:13:28.022Z,1004.84
2017-04-29T02:14:08.542Z,1004.85
2017-04-29T02:14:49.070Z,1004.86
2017-04-29T02:15:29.581Z,1004.83
2017-04-29T02:16:10.101Z,1004.81
2017-04-29T02:16:50.618Z,1004.82
2017-04-29T02:17:31.134Z,1004.8
2017-04-29T02:18:11.671Z,1004.86
2017-04-29T02:18:52.198Z,1004.84
2017-04-29T02:19:32.721Z,1004.84
2017-04-29T02:20:13.234Z,1004.81
2017-04-29T02:20:53.760Z,1004.82
2017-04-29T02:21:34.279Z,1004.79
2017-04-29T02:22:14.800Z,1004.78
2017-04-29T02:22:55.318Z,1004.82
2017-04-29T02:23:35.844Z,1004.81
2017-04-29T02:24:16.354Z,1004.8
2017-04-29T02:24:56.866Z,1004.71
2017-04-29T02:25:37.407Z,1004.75
2017-04-29T02:26:17.926Z,1004.73
2017-04-29T02:26:58.450Z,1004.71
2017-04-29T02:27:38.967Z,1004.71
2017-04-29T02:28:19.482Z,1004.73
2017-04-29T02:29:00.006Z,1004.74
2017-04-29T02:29:40.526Z,1004.72
2017-04-29T02:30:21.040Z,1004.65
2017-04-29T02:31:01.556Z,1004.7
2017-04-29T02:31:42.076Z,1004.7
2017-04-29T02:32:22.586Z,1004.66
2017-04-29T02:34:15.677Z,1004.67
2017-04-29T02:34:57.102Z,1004.65
2017-04-29T02:37:10.435Z,1004.62
2017-04-29T02:37:50.946Z,1004.65
2017-04-29T02:38:31.466Z,1004.68
2017-04-29T02:39:11.988Z,1004.68
2017-04-29T02:39:52.505Z,1004.64
2017-04-29T02:40:33.005Z,1004.66
2017-04-29T02:41:13.514Z,1004.64
2017-04-29T02:41:54.035Z,1004.64
2017-04-29T02:42:34.559Z,1004.66
2017-04-29T02:43:15.078Z,1004.68
2017-04-29T02:43:55.586Z,1004.67
2017-04-29T02:44:36.100Z,1004.69
2017-04-29T02:45:16.622Z,1004.67
2017-04-29T02:45:58.027Z,1004.67
2017-04-29T02:46:38.534Z,1004.69
2017-04-29T02:47:19.054Z,1004.67
2017-04-29T02:47:59.571Z,1004.64
2017-04-29T02:48:40.082Z,1004.69
2017-04-29T02:49:20.601Z,1004.68
2017-04-29T02:50:01.130Z,1004.68
2017-04-29T02:50:42.341Z,1004.68
2017-04-29T02:51:22.857Z,1004.65
2017-04-29T02:52:03.373Z,1004.68
2017-04-29T02:52:43.890Z,1004.65
2017-04-29T02:53:24.405Z,1004.72
2017-04-29T02:54:04.922Z,1004.7
2017-04-29T02:54:45.491Z,1004.73
2017-04-29T02:55:28.536Z,1004.71
2017-04-29T02:56:09.087Z,1004.71
2017-04-29T02:56:49.603Z,1004.71
2017-04-29T02:57:30.112Z,1004.72
2017-04-29T02:58:10.608Z,1004.67
2017-04-29T02:58:51.122Z,1004.67
2017-04-29T02:59:31.633Z,1004.67
2017-04-29T03:00:12.161Z,1004.7
2017-04-29T03:00:52.685Z,1004.66
2017-04-29T03:01:33.201Z,1004.71
2017-04-29T03:02:13.719Z,1004.69
2017-04-29T03:02:54.262Z,1004.7
2017-04-29T03:03:34.768Z,1004.71
2017-04-29T03:04:15.287Z,1004.73
2017-04-29T03:04:55.798Z,1004.68
2017-04-29T03:05:36.300Z,1004.73
2017-04-29T03:06:16.820Z,1004.74
2017-04-29T03:06:57.341Z,1004.77
2017-04-29T03:07:37.855Z,1004.81
2017-04-29T03:08:18.366Z,1004.79
2017-04-29T03:08:58.883Z,1004.84
2017-04-29T03:09:39.399Z,1004.84
2017-04-29T03:10:19.915Z,1004.83
2017-04-29T03:11:00.442Z,1004.82
2017-04-29T03:11:40.979Z,1004.84
2017-04-29T03:12:21.495Z,1004.84
2017-04-29T03:13:02.019Z,1004.8
2017-04-29T03:13:42.543Z,1004.88
2017-04-29T03:14:23.052Z,1004.84
2017-04-29T03:15:03.553Z,1004.87
2017-04-29T03:15:44.125Z,1004.82
2017-04-29T03:16:24.662Z,1004.79
2017-04-29T03:17:05.185Z,1004.83
2017-04-29T03:17:45.694Z,1004.85
2017-04-29T03:18:26.218Z,1004.8
2017-04-29T03:19:06.774Z,1004.83
2017-04-29T03:19:47.288Z,1004.82
2017-04-29T03:20:27.802Z,1004.81
2017-04-29T03:21:08.327Z,1004.81
2017-04-29T03:21:48.852Z,1004.84
2017-04-29T03:22:29.359Z,1004.85
2017-04-29T03:23:09.889Z,1004.83
2017-04-29T03:23:50.387Z,1004.83
2017-04-29T03:24:30.902Z,1004.84
2017-04-29T03:25:11.420Z,1004.84
2017-04-29T03:25:51.927Z,1004.82
2017-04-29T03:26:32.440Z,1004.87
2017-04-29T03:27:12.965Z,1004.83
2017-04-29T03:27:53.476Z,1004.83
2017-04-29T03:28:33.978Z,1004.88
2017-04-29T03:29:14.487Z,1004.83
2017-04-29T03:29:55.054Z,1004.82
2017-04-29T03:30:35.515Z,1004.87
2017-04-29T03:31:16.007Z,1004.83
2017-04-29T03:31:56.498Z,1004.82
2017-04-29T03:32:36.977Z,1004.83
2017-04-29T03:33:17.456Z,1004.78
2017-04-29T03:33:57.965Z,1004.77
2017-04-29T03:34:38.476Z,1004.83
2017-04-29T03:35:18.959Z,1004.79
2017-04-29T03:35:59.452Z,1004.82
2017-04-29T03:36:39.922Z,1004.83
2017-04-29T03:37:20.446Z,1004.85
2017-04-29T03:38:00.966Z,1004.84
2017-04-29T03:38:41.488Z,1004.86
2017-04-29T03:39:21.994Z,1004.86
2017-04-29T03:40:02.511Z,1004.91
2017-04-29T03:40:43.031Z,1004.9
2017-04-29T03:41:23.550Z,1004.9
2017-04-29T03:42:04.058Z,1004.91
2017-04-29T03:42:44.579Z,1004.92
2017-04-29T03:43:25.104Z,1004.96
2017-04-29T03:44:05.649Z,1004.95
2017-04-29T03:44:46.174Z,1004.92
2017-04-29T03:45:26.686Z,1004.93
2017-04-29T03:46:07.214Z,1004.91
2017-04-29T03:46:47.728Z,1004.98
2017-04-29T03:47:28.262Z,1004.95
2017-04-29T03:48:08.789Z,1004.97
2017-04-29T03:48:49.295Z,1004.96
2017-04-29T03:49:29.803Z,1004.93
2017-04-29T03:50:10.316Z,1004.93
2017-04-29T03:50:50.842Z,1005.04
2017-04-29T03:51:31.345Z,1004.98
2017-04-29T03:52:11.851Z,1005
2017-04-29T03:52:52.359Z,1004.93
2017-04-29T03:53:32.886Z,1004.98
2017-04-29T03:54:13.389Z,1004.95
2017-04-29T03:54:53.911Z,1004.93
2017-04-29T03:55:34.427Z,1004.96
2017-04-29T03:56:14.956Z,1004.98
2017-04-29T03:56:55.469Z,1004.91
2017-04-29T03:57:35.979Z,1004.96
2017-04-29T03:58:16.514Z,1004.95
2017-04-29T03:58:56.979Z,1004.94
2017-04-29T03:59:37.506Z,1004.92
2017-04-29T04:00:18.051Z,1004.95
2017-04-29T04:00:58.561Z,1004.95
2017-04-29T04:01:39.085Z,1004.93
2017-04-29T04:02:19.618Z,1004.91
2017-04-29T04:03:00.131Z,1004.95
2017-04-29T04:03:40.656Z,1004.94
2017-04-29T04:04:21.177Z,1004.9
2017-04-29T04:05:01.691Z,1004.92
2017-04-29T04:05:42.220Z,1004.94
2017-04-29T04:06:22.733Z,1004.93
2017-04-29T04:07:03.276Z,1004.93
2017-04-29T04:07:43.760Z,1004.91
2017-04-29T04:08:24.260Z,1004.93
2017-04-29T04:09:04.767Z,1004.91
2017-04-29T04:09:45.313Z,1004.94
2017-04-29T04:10:25.801Z,1004.92
2017-04-29T04:11:06.306Z,1004.93
2017-04-29T04:11:46.811Z,1004.97
2017-04-29T04:12:27.370Z,1004.91
2017-04-29T04:13:07.888Z,1004.93
2017-04-29T04:13:48.408Z,1004.93
2017-04-29T04:14:28.920Z,1004.96
2017-04-29T04:15:09.437Z,1004.91
2017-04-29T04:15:49.950Z,1004.95
2017-04-29T04:16:30.462Z,1004.95
2017-04-29T04:17:10.983Z,1004.93
2017-04-29T04:17:51.499Z,1004.95
2017-04-29T04:18:32.017Z,1004.9
2017-04-29T04:19:12.547Z,1004.9
2017-04-29T04:19:53.066Z,1004.97
2017-04-29T04:20:33.576Z,1004.9
2017-04-29T04:21:14.088Z,1004.92
2017-04-29T04:21:54.600Z,1004.94
2017-04-29T04:22:35.119Z,1004.93
2017-04-29T04:23:15.629Z,1004.95
2017-04-29T04:23:56.152Z,1004.95
2017-04-29T04:24:36.667Z,1004.99
2017-04-29T04:25:17.180Z,1004.99
2017-04-29T04:25:57.709Z,1004.95
2017-04-29T04:26:38.222Z,1005
2017-04-29T04:27:18.676Z,1004.94
2017-04-29T04:27:59.188Z,1005
2017-04-29T04:28:39.719Z,1005.04
2017-04-29T04:29:20.242Z,1005.01
2017-04-29T04:30:00.763Z,1005.04
2017-04-29T04:30:41.290Z,1005.01
2017-04-29T04:31:21.796Z,1005
2017-04-29T04:32:02.329Z,1005.04
2017-04-29T04:32:42.812Z,1005.02
2017-04-29T04:33:23.342Z,1004.99
2017-04-29T04:34:03.824Z,1005.03
2017-04-29T04:34:44.335Z,1005.04
2017-04-29T04:35:24.874Z,1004.97
2017-04-29T04:36:05.343Z,1004.99
2017-04-29T04:36:45.860Z,1004.99
2017-04-29T04:37:26.359Z,1004.96
2017-04-29T04:38:06.866Z,1004.96
2017-04-29T04:38:47.373Z,1005
2017-04-29T04:39:27.897Z,1004.97
2017-04-29T04:40:08.409Z,1005
2017-04-29T04:40:48.925Z,1005.03
2017-04-29T04:41:29.440Z,1005.02
2017-04-29T04:42:09.954Z,1005.02
2017-04-29T04:42:50.479Z,1005.03
2017-04-29T04:43:30.982Z,1005.01
2017-04-29T04:44:11.490Z,1005.05
2017-04-29T04:44:52.008Z,1005.04
2017-04-29T04:45:32.521Z,1005.06
2017-04-29T04:46:13.039Z,1005.05
2017-04-29T04:46:53.547Z,1005.12
2017-04-29T04:47:34.058Z,1005.09
2017-04-29T04:48:14.581Z,1005.14
2017-04-29T04:48:55.131Z,1005.05
2017-04-29T04:49:35.637Z,1005.11
2017-04-29T04:50:16.155Z,1005.09
2017-04-29T04:50:56.674Z,1005.07
2017-04-29T04:51:37.199Z,1005.13
2017-04-29T04:52:17.720Z,1005.1
2017-04-29T04:52:58.241Z,1005.05
2017-04-29T04:53:38.776Z,1005.08
2017-04-29T04:54:19.286Z,1005.06
2017-04-29T04:54:59.808Z,1005.03
2017-04-29T04:55:40.334Z,1005.05
2017-04-29T04:56:20.880Z,1005.06
2017-04-29T04:57:01.400Z,1005.03
2017-04-29T04:57:41.922Z,1005.03
2017-04-29T04:59:40.149Z,1005.07
2017-04-29T05:00:20.668Z,1005.03
2017-04-29T05:01:01.194Z,1005.05
2017-04-29T05:01:41.731Z,1005.05
2017-04-29T05:02:22.282Z,1005.04
2017-04-29T05:03:02.794Z,1005
2017-04-29T05:03:43.312Z,1005.04
2017-04-29T05:04:23.833Z,1005.06
2017-04-29T05:05:04.348Z,1005.05
2017-04-29T05:05:44.849Z,1005.05
2017-04-29T05:06:25.350Z,1005.02
2017-04-29T05:07:05.896Z,1005.07
2017-04-29T05:07:46.394Z,1005.04
2017-04-29T05:08:26.882Z,1005.1
2017-04-29T05:09:07.404Z,1005.07
2017-04-29T05:09:47.897Z,1005.05
2017-04-29T05:10:28.416Z,1005.09
2017-04-29T05:11:08.943Z,1005.09
2017-04-29T05:11:49.473Z,1005.09
2017-04-29T05:12:29.993Z,1005.07
2017-04-29T05:13:10.498Z,1005.12
2017-04-29T05:13:51.104Z,1005.1
2017-04-29T05:14:31.605Z,1005.09
2017-04-29T05:15:12.125Z,1005.12
2017-04-29T05:15:52.649Z,1005.13
2017-04-29T05:16:33.163Z,1005.14
2017-04-29T05:17:13.691Z,1005.13
2017-04-29T05:17:54.200Z,1005.16
2017-04-29T05:18:34.715Z,1005.13
2017-04-29T05:19:15.235Z,1005.16
2017-04-29T05:19:55.751Z,1005.16
2017-04-29T05:20:36.357Z,1005.15
2017-04-29T05:21:16.888Z,1005.17
2017-04-29T05:21:57.394Z,1005.18
2017-04-29T05:22:37.917Z,1005.17
2017-04-29T05:23:18.443Z,1005.18
2017-04-29T05:23:58.956Z,1005.17
2017-04-29T05:24:39.478Z,1005.24
2017-04-29T05:25:20.004Z,1005.21
2017-04-29T05:26:00.540Z,1005.22
2017-04-29T05:26:41.026Z,1005.23
2017-04-29T05:27:21.550Z,1005.27
2017-04-29T05:28:02.070Z,1005.26
2017-04-29T05:28:42.566Z,1005.25
2017-04-29T05:29:23.132Z,1005.29
2017-04-29T05:30:03.603Z,1005.32
2017-04-29T05:30:44.123Z,1005.32
2017-04-29T05:31:24.671Z,1005.35
2017-04-29T05:32:05.132Z,1005.31
2017-04-29T05:32:45.660Z,1005.34
2017-04-29T05:33:26.180Z,1005.34
2017-04-29T05:34:06.696Z,1005.39
2017-04-29T05:34:47.211Z,1005.36
2017-04-29T05:35:27.742Z,1005.39
2017-04-29T05:36:08.226Z,1005.37
2017-04-29T05:36:48.780Z,1005.38
2017-04-29T05:37:29.336Z,1005.43
2017-04-29T05:38:09.821Z,1005.41
2017-04-29T05:38:50.344Z,1005.35
2017-04-29T05:39:30.833Z,1005.41
2017-04-29T05:40:11.351Z,1005.43
2017-04-29T05:40:51.865Z,1005.43
2017-04-29T05:41:32.358Z,1005.43
2017-04-29T05:42:12.866Z,1005.43
2017-04-29T05:42:53.387Z,1005.39
2017-04-29T05:43:33.905Z,1005.41
2017-04-29T05:44:14.422Z,1005.4
2017-04-29T05:44:54.943Z,1005.43
2017-04-29T05:45:35.463Z,1005.4
2017-04-29T05:46:16.002Z,1005.39
2017-04-29T05:46:56.553Z,1005.4
2017-04-29T05:47:37.124Z,1005.4
2017-04-29T05:48:17.567Z,1005.45
2017-04-29T05:48:58.079Z,1005.43
2017-04-29T05:49:38.596Z,1005.43
2017-04-29T05:50:19.096Z,1005.39
2017-04-29T05:50:59.595Z,1005.38
2017-04-29T05:51:40.111Z,1005.37
2017-04-29T05:52:20.646Z,1005.37
2017-04-29T05:53:01.166Z,1005.37
2017-04-29T05:53:41.687Z,1005.38
2017-04-29T05:54:22.209Z,1005.37
2017-04-29T05:55:02.717Z,1005.35
2017-04-29T05:55:43.237Z,1005.36
2017-04-29T05:56:23.771Z,1005.34
2017-04-29T05:57:04.302Z,1005.38
2017-04-29T05:57:44.824Z,1005.36
2017-04-29T05:58:25.339Z,1005.35
2017-04-29T05:59:05.852Z,1005.37
2017-04-29T05:59:46.358Z,1005.32
2017-04-29T06:00:26.877Z,1005.36
2017-04-29T06:01:07.402Z,1005.35
2017-04-29T06:01:47.922Z,1005.36
2017-04-29T06:02:28.449Z,1005.35
2017-04-29T06:03:08.969Z,1005.35
2017-04-29T06:03:49.517Z,1005.36
2017-04-29T06:04:30.017Z,1005.31
2017-04-29T06:05:10.555Z,1005.35
2017-04-29T06:05:51.054Z,1005.33
2017-04-29T06:06:31.556Z,1005.32
2017-04-29T06:07:12.090Z,1005.31
2017-04-29T06:07:52.543Z,1005.33
2017-04-29T06:08:33.083Z,1005.33
2017-04-29T06:09:13.589Z,1005.34
2017-04-29T06:09:54.060Z,1005.31
2017-04-29T06:10:34.588Z,1005.36
2017-04-29T06:11:15.066Z,1005.33
2017-04-29T06:11:55.543Z,1005.37
2017-04-29T06:12:36.022Z,1005.34
2017-04-29T06:13:16.555Z,1005.33
2017-04-29T06:13:57.045Z,1005.32
2017-04-29T06:14:37.589Z,1005.31
2017-04-29T06:16:56.037Z,1005.32
2017-04-29T06:17:36.593Z,1005.29
2017-04-29T06:18:17.103Z,1005.31
2017-04-29T06:18:57.602Z,1005.32
2017-04-29T06:19:38.123Z,1005.32
2017-04-29T06:20:18.644Z,1005.36
2017-04-29T06:20:59.172Z,1005.33
2017-04-29T06:21:39.691Z,1005.39
2017-04-29T06:22:20.254Z,1005.36
2017-04-29T06:23:00.726Z,1005.38
2017-04-29T06:23:41.239Z,1005.36
2017-04-29T06:24:21.774Z,1005.34
2017-04-29T06:25:02.304Z,1005.43
2017-04-29T06:25:42.839Z,1005.35
2017-04-29T06:26:23.335Z,1005.39
2017-04-29T06:27:03.839Z,1005.44
2017-04-29T06:27:44.353Z,1005.41
2017-04-29T06:28:24.898Z,1005.46
2017-04-29T06:29:05.407Z,1005.43
2017-04-29T06:29:45.965Z,1005.43
2017-04-29T06:30:26.498Z,1005.42
2017-04-29T06:31:07.039Z,1005.42
2017-04-29T06:31:47.497Z,1005.39
2017-04-29T06:32:28.006Z,1005.38
2017-04-29T06:33:08.544Z,1005.43
2017-04-29T06:33:49.050Z,1005.42
2017-04-29T06:34:29.535Z,1005.38
2017-04-29T06:35:10.060Z,1005.4
2017-04-29T06:35:50.588Z,1005.4
2017-04-29T06:36:31.195Z,1005.43
2017-04-29T06:37:11.846Z,1005.4
2017-04-29T06:37:52.528Z,1005.41
2017-04-29T06:38:33.081Z,1005.37
2017-04-29T06:39:13.433Z,1005.43
2017-04-29T06:39:53.927Z,1005.36
2017-04-29T06:40:34.443Z,1005.45
2017-04-29T06:41:14.894Z,1005.39
2017-04-29T06:41:55.393Z,1005.38
2017-04-29T06:42:35.921Z,1005.39
2017-04-29T06:43:16.375Z,1005.33
2017-04-29T06:43:56.905Z,1005.37
2017-04-29T06:44:37.430Z,1005.41
2017-04-29T06:45:17.896Z,1005.33
2017-04-29T06:45:58.379Z,1005.32
2017-04-29T06:46:38.840Z,1005.34
2017-04-29T06:47:19.326Z,1005.42
2017-04-29T06:47:59.823Z,1005.38
2017-04-29T06:48:40.359Z,1005.35
2017-04-29T06:49:20.838Z,1005.39
2017-04-29T06:50:01.320Z,1005.37
2017-04-29T06:50:41.854Z,1005.4
2017-04-29T06:51:22.358Z,1005.39
2017-04-29T06:52:02.843Z,1005.37
2017-04-29T06:52:43.339Z,1005.4
2017-04-29T06:53:23.857Z,1005.36
2017-04-29T06:54:04.355Z,1005.32
2017-04-29T06:54:44.814Z,1005.37
2017-04-29T06:55:25.314Z,1005.38
2017-04-29T06:56:05.841Z,1005.35
2017-04-29T06:56:46.329Z,1005.36
2017-04-29T06:57:26.845Z,1005.38
2017-04-29T06:58:07.314Z,1005.38
2017-04-29T06:58:47.853Z,1005.4
2017-04-29T06:59:28.300Z,1005.39
2017-04-29T07:00:08.800Z,1005.36
2017-04-29T07:00:49.335Z,1005.35
2017-04-29T07:01:29.806Z,1005.36
2017-04-29T07:02:10.325Z,1005.36
2017-04-29T07:02:50.774Z,1005.36
2017-04-29T07:03:31.303Z,1005.39
2017-04-29T07:04:11.801Z,1005.44
2017-04-29T07:04:52.310Z,1005.34
2017-04-29T07:05:32.787Z,1005.39
2017-04-29T07:06:13.312Z,1005.37
2017-04-29T07:06:53.803Z,1005.37
2017-04-29T07:07:34.269Z,1005.36
2017-04-29T07:10:02.347Z,1005.36
2017-04-29T07:10:42.877Z,1005.38
2017-04-29T07:11:23.373Z,1005.39
2017-04-29T07:12:03.933Z,1005.46
2017-04-29T07:12:44.460Z,1005.42
2017-04-29T07:13:25.005Z,1005.41
2017-04-29T07:14:05.534Z,1005.4
2017-04-29T07:14:46.070Z,1005.46
2017-04-29T07:15:26.665Z,1005.38
2017-04-29T07:16:07.081Z,1005.42
2017-04-29T07:16:47.591Z,1005.43
2017-04-29T07:17:28.115Z,1005.49
2017-04-29T07:18:08.639Z,1005.47
2017-04-29T07:18:49.165Z,1005.43
2017-04-29T07:19:29.688Z,1005.47
2017-04-29T07:20:10.142Z,1005.42
2017-04-29T07:20:50.671Z,1005.4
2017-04-29T07:21:31.185Z,1005.42
2017-04-29T07:22:11.720Z,1005.43
2017-04-29T07:22:52.230Z,1005.42
2017-04-29T07:23:32.750Z,1005.43
2017-04-29T07:24:13.250Z,1005.46
2017-04-29T07:24:53.767Z,1005.44
2017-04-29T07:25:34.279Z,1005.46
2017-04-29T07:26:14.808Z,1005.47
2017-04-29T07:26:55.312Z,1005.45
2017-04-29T07:27:35.835Z,1005.47
2017-04-29T07:28:16.348Z,1005.47
2017-04-29T07:28:56.854Z,1005.47
2017-04-29T07:29:37.362Z,1005.47
2017-04-29T07:30:17.872Z,1005.44
2017-04-29T07:30:58.368Z,1005.45
2017-04-29T07:31:38.909Z,1005.43
2017-04-29T07:32:19.426Z,1005.46
2017-04-29T07:33:00.016Z,1005.48
2017-04-29T07:33:40.535Z,1005.45
2017-04-29T07:34:21.072Z,1005.46
2017-04-29T07:35:01.615Z,1005.44
2017-04-29T07:35:42.144Z,1005.42
2017-04-29T07:36:22.673Z,1005.43
2017-04-29T07:37:03.187Z,1005.42
2017-04-29T07:37:43.716Z,1005.39
2017-04-29T07:38:24.225Z,1005.44
2017-04-29T07:39:04.755Z,1005.38
2017-04-29T07:39:45.260Z,1005.39
2017-04-29T07:42:13.607Z,1005.38
2017-04-29T07:42:54.108Z,1005.42
2017-04-29T07:43:34.636Z,1005.39
2017-04-29T07:44:15.163Z,1005.39
2017-04-29T07:44:55.705Z,1005.41
2017-04-29T07:45:36.235Z,1005.41
2017-04-29T07:46:16.760Z,1005.44
2017-04-29T07:46:57.327Z,1005.39
2017-04-29T07:47:37.852Z,1005.36
2017-04-29T07:48:18.375Z,1005.36
2017-04-29T07:48:58.905Z,1005.37
2017-04-29T07:49:39.438Z,1005.37
2017-04-29T07:50:19.965Z,1005.38
2017-04-29T07:51:00.497Z,1005.34
2017-04-29T07:51:41.007Z,1005.4
2017-04-29T07:52:21.540Z,1005.4
2017-04-29T07:53:02.078Z,1005.36
2017-04-29T07:53:42.667Z,1005.39
2017-04-29T07:54:23.171Z,1005.42
2017-04-29T07:55:03.694Z,1005.34
2017-04-29T07:55:44.255Z,1005.35
2017-04-29T07:56:24.822Z,1005.34
2017-04-29T07:57:05.346Z,1005.31
2017-04-29T07:57:45.868Z,1005.32
2017-04-29T07:58:26.398Z,1005.33
2017-04-29T07:59:06.970Z,1005.36
2017-04-29T07:59:47.466Z,1005.34
2017-04-29T08:00:27.991Z,1005.31
2017-04-29T08:01:08.514Z,1005.29
2017-04-29T08:01:49.303Z,1005.37
2017-04-29T08:02:29.599Z,1005.3
2017-04-29T08:03:10.084Z,1005.33
2017-04-29T08:03:50.607Z,1005.26
2017-04-29T08:04:31.130Z,1005.29
2017-04-29T08:05:11.611Z,1005.26
2017-04-29T08:05:52.137Z,1005.25
2017-04-29T08:06:32.670Z,1005.31
2017-04-29T08:07:13.196Z,1005.25
2017-04-29T08:07:53.718Z,1005.23
2017-04-29T08:08:34.256Z,1005.23
2017-04-29T08:09:14.784Z,1005.25
2017-04-29T08:09:55.318Z,1005.2
2017-04-29T08:10:35.845Z,1005.25
2017-04-29T08:11:16.386Z,1005.26
2017-04-29T08:11:56.901Z,1005.28
2017-04-29T08:12:37.524Z,1005.28
2017-04-29T08:13:18.013Z,1005.2
2017-04-29T08:13:58.557Z,1005.19
2017-04-29T08:14:39.100Z,1005.21
2017-04-29T08:15:19.631Z,1005.21
2017-04-29T08:16:00.150Z,1005.26
2017-04-29T08:16:40.690Z,1005.24
2017-04-29T08:17:21.234Z,1005.23
2017-04-29T08:18:01.750Z,1005.26
2017-04-29T08:18:42.279Z,1005.26
2017-04-29T08:19:22.795Z,1005.22
2017-04-29T08:20:03.319Z,1005.23
2017-04-29T08:20:43.859Z,1005.23
2017-04-29T08:21:24.412Z,1005.26
2017-04-29T08:22:04.946Z,1005.25
2017-04-29T08:22:45.509Z,1005.22